Time;durP1;ratioP1;P1;durP2;ratioP2;P2;SDS_P1;SDS_P2;PMS_P1;PMS_P2;Temp;Humidity;BMP_temperature;BMP_pressure;BME280_temperature;BME280_humidity;BME280_pressure;Samples;Min_cycle;Max_cycle;Signal;HPM_P1;HPM_P2
2023/05/27 00:00:10;;;;;;;;;8.00;5.00;;;;;19.83;51.84;102098.34;5015667;28;46594;-76
2023/05/27 00:02:36;;;;;;;;;3.67;3.33;;;;;19.79;52.45;102097.44;5015893;28;45543;-76
2023/05/27 00:05:02;;;;;;;;;7.33;4.00;;;;;19.76;52.00;102085.84;5016078;28;45530;-73
2023/05/27 00:07:27;;;;;;;;;7.33;3.67;;;;;19.75;52.10;102095.69;5015416;28;45496;-74
2023/05/27 00:09:54;;;;;;;;;10.33;6.00;;;;;19.70;51.96;102085.91;5014653;28;46631;-75
2023/05/27 00:12:19;;;;;;;;;8.00;5.00;;;;;19.67;51.89;102092.19;5008905;28;45297;-74
2023/05/27 00:14:45;;;;;;;;;6.00;4.67;;;;;19.61;52.13;102087.75;5015944;28;45385;-75
2023/05/27 00:17:14;;;;;;;;;7.33;4.33;;;;;19.59;52.36;102092.22;5009650;28;45590;-75
2023/05/27 00:19:44;;;;;;;;;5.00;5.00;;;;;19.55;52.63;102085.09;5015314;28;46501;-74
2023/05/27 00:22:10;;;;;;;;;6.67;3.67;;;;;19.52;52.39;102082.41;5018270;28;45436;-74
2023/05/27 00:24:38;;;;;;;;;8.00;5.33;;;;;19.48;52.30;102075.28;5019118;28;45483;-74
2023/05/27 00:27:07;;;;;;;;;6.33;5.00;;;;;19.45;52.67;102082.47;5018342;28;45453;-75
2023/05/27 00:29:33;;;;;;;;;9.33;4.33;;;;;19.41;52.60;102076.22;5018719;28;48041;-75
2023/05/27 00:32:00;;;;;;;;;5.00;4.00;;;;;19.37;52.27;102069.09;5018424;28;45445;-74
2023/05/27 00:34:25;;;;;;;;;5.00;4.00;;;;;19.31;53.17;102074.50;5018561;28;45277;-76
2023/05/27 00:36:50;;;;;;;;;6.67;3.33;;;;;19.29;52.82;102073.63;5014058;28;63039;-75
2023/05/27 00:39:16;;;;;;;;;8.33;6.33;;;;;19.28;52.56;102070.06;5017807;28;70528;-74
2023/05/27 00:41:48;;;;;;;;;3.33;3.00;;;;;19.27;52.65;102070.94;5017978;28;52895;-75
2023/05/27 00:44:13;;;;;;;;;4.67;4.00;;;;;19.24;53.33;102064.72;5009071;28;45436;-74
2023/05/27 00:46:38;;;;;;;;;8.33;5.67;;;;;19.21;52.65;102070.97;5017785;28;62488;-74
2023/05/27 00:49:03;;;;;;;;;9.00;6.00;;;;;19.18;52.88;102071.00;5017504;28;72495;-74
2023/05/27 00:51:29;;;;;;;;;10.33;4.67;;;;;19.11;53.22;102067.44;4999901;28;68179;-75
2023/05/27 00:53:55;;;;;;;;;9.33;4.33;;;;;19.09;53.34;102076.41;5018419;28;45397;-76
2023/05/27 00:56:22;;;;;;;;;4.33;3.00;;;;;19.04;53.01;102070.16;4999910;28;60564;-74
2023/05/27 00:58:48;;;;;;;;;3.67;2.00;;;;;19.02;53.22;102063.94;5001091;28;46349;-77
2023/05/27 01:01:13;;;;;;;;;5.67;4.00;;;;;19.00;53.51;102069.28;5016969;28;45492;-75
2023/05/27 01:03:41;;;;;;;;;11.00;4.67;;;;;18.98;53.35;102067.53;5016534;28;45340;-74
2023/05/27 01:06:30;;;;;;;;;10.67;6.00;;;;;18.95;53.49;102064.84;5018141;28;45591;-74
2023/05/27 01:09:09;;;;;;;;;5.33;5.00;;;;;18.92;53.65;102067.53;5000414;28;45468;-74
2023/05/27 01:11:43;;;;;;;;;4.67;3.00;;;;;18.90;53.25;102063.97;5012231;28;46810;-74
2023/05/27 01:14:10;;;;;;;;;6.67;6.00;;;;;18.86;53.62;102063.09;5014810;28;45294;-74
2023/05/27 01:16:39;;;;;;;;;5.00;5.00;;;;;18.81;53.46;102060.44;5018161;28;45450;-75
2023/05/27 01:19:08;;;;;;;;;5.00;5.00;;;;;18.78;53.29;102054.19;5029897;28;45874;-76
2023/05/27 01:21:36;;;;;;;;;6.00;5.00;;;;;18.74;53.64;102055.97;4999922;28;45464;-74
2023/05/27 01:24:05;;;;;;;;;6.67;6.00;;;;;18.71;53.65;102053.34;4996741;28;45379;-74
2023/05/27 01:26:31;;;;;;;;;5.00;5.00;;;;;18.69;53.72;102052.44;5014780;28;45540;-76
2023/05/27 01:28:56;;;;;;;;;6.67;5.00;;;;;18.66;53.58;102038.16;5017285;28;45640;-73
2023/05/27 01:31:24;;;;;;;;;4.33;4.33;;;;;18.65;53.27;102056.00;4999367;28;65711;-75
2023/05/27 01:33:59;;;;;;;;;7.33;4.00;;;;;18.61;53.82;102048.00;4998755;28;45595;-75
2023/05/27 01:36:26;;;;;;;;;9.67;4.67;;;;;18.56;53.53;102054.22;5003369;28;45525;-74
2023/05/27 01:38:52;;;;;;;;;5.67;4.67;;;;;18.54;53.40;102053.34;5017835;28;45599;-75
2023/05/27 01:41:18;;;;;;;;;3.33;3.33;;;;;18.52;53.43;102060.47;5000035;28;69486;-74
2023/05/27 01:43:44;;;;;;;;;5.33;4.33;;;;;18.50;53.80;102058.72;5015217;28;61956;-74
2023/05/27 01:46:09;;;;;;;;;9.67;4.00;;;;;18.49;53.74;102054.25;5017296;28;45536;-73
2023/05/27 01:48:34;;;;;;;;;6.00;4.00;;;;;18.45;53.69;102050.69;4998741;28;45726;-74
2023/05/27 01:51:00;;;;;;;;;5.00;5.00;;;;;18.42;53.50;102048.00;5017011;28;61686;-74
2023/05/27 01:53:25;;;;;;;;;3.67;3.33;;;;;18.39;53.94;102047.16;5016739;28;47143;-72
2023/05/27 01:55:50;;;;;;;;;5.67;5.00;;;;;18.38;53.79;102050.72;4999691;28;45476;-76
2023/05/27 01:58:16;;;;;;;;;6.00;4.00;;;;;18.35;53.82;102048.03;5016650;28;69784;-74
2023/05/27 02:00:41;;;;;;;;;6.00;4.00;;;;;18.30;54.06;102048.94;5016349;28;49018;-76
2023/05/27 02:03:06;;;;;;;;;7.00;5.00;;;;;18.27;53.97;102048.94;5013960;28;63073;-73
2023/05/27 02:05:32;;;;;;;;;7.33;4.00;;;;;18.24;53.72;102046.28;5016805;28;58853;-75
2023/05/27 02:07:58;;;;;;;;;10.00;5.33;;;;;18.21;54.11;102054.28;5016997;28;47723;-74
2023/05/27 02:10:23;;;;;;;;;7.67;4.67;;;;;18.18;54.23;102050.75;5016174;28;45382;-74
2023/05/27 02:12:48;;;;;;;;;7.00;5.33;;;;;18.15;54.23;102046.28;5014482;28;59906;-74
2023/05/27 02:15:14;;;;;;;;;5.00;3.67;;;;;18.09;54.37;102042.72;5017154;28;45608;-74
2023/05/27 02:17:39;;;;;;;;;9.00;4.00;;;;;18.08;54.37;102044.50;5015210;28;69570;-74
2023/05/27 02:20:05;;;;;;;;;7.67;4.67;;;;;18.06;54.58;102048.97;5015128;28;65599;-76
2023/05/27 02:22:31;;;;;;;;;11.67;5.00;;;;;18.02;54.85;102056.09;5017132;28;45359;-75
2023/05/27 02:24:56;;;;;;;;;8.33;4.33;;;;;17.97;54.31;102046.28;5016665;28;45528;-73
2023/05/27 02:27:21;;;;;;;;;3.33;3.33;;;;;17.94;54.33;102044.50;4997658;28;70059;-73
2023/05/27 02:29:47;;;;;;;;;8.33;5.33;;;;;17.91;54.46;102039.16;5016899;28;45214;-74
2023/05/27 02:32:12;;;;;;;;;7.00;5.00;;;;;17.90;54.59;102039.19;5016706;28;45330;-75
2023/05/27 02:34:37;;;;;;;;;13.00;4.33;;;;;17.88;54.34;102044.50;4999547;28;59145;-75
2023/05/27 02:37:04;;;;;;;;;4.00;4.00;;;;;17.86;54.46;102037.38;5016942;28;45480;-74
2023/05/27 02:39:29;;;;;;;;;5.00;5.00;;;;;17.83;54.21;102046.28;5016395;28;45356;-74
2023/05/27 02:41:55;;;;;;;;;4.67;4.00;;;;;17.80;54.31;102032.94;5017474;28;45466;-74
2023/05/27 02:44:20;;;;;;;;;6.00;4.00;;;;;17.79;54.51;102037.41;5016120;28;61120;-76
2023/05/27 02:46:45;;;;;;;;;8.00;5.00;;;;;17.77;54.55;102038.25;5016581;28;47698;-75
2023/05/27 02:49:11;;;;;;;;;7.00;4.67;;;;;17.71;54.51;102020.41;5015299;28;69257;-74
2023/05/27 02:51:36;;;;;;;;;10.67;5.67;;;;;17.72;54.68;102026.66;5015612;28;63748;-74
2023/05/27 02:54:02;;;;;;;;;7.00;5.00;;;;;17.68;54.67;102020.41;5016214;28;45434;-75
2023/05/27 02:56:27;;;;;;;;;4.00;4.00;;;;;17.66;55.07;102027.53;5016329;28;47153;-74
2023/05/27 02:58:53;;;;;;;;;6.00;3.00;;;;;17.61;54.92;102029.31;5016005;28;45451;-73
2023/05/27 03:01:18;;;;;;;;;7.33;4.00;;;;;17.60;54.75;102027.53;5016284;28;45238;-74
2023/05/27 03:03:44;;;;;;;;;6.00;4.00;;;;;17.59;54.86;102035.56;5016855;28;45488;-74
2023/05/27 03:06:09;;;;;;;;;6.67;3.67;;;;;17.55;55.24;102035.53;5016144;28;47642;-74
2023/05/27 03:08:35;;;;;;;;;5.00;5.00;;;;;17.53;54.97;102023.97;5015165;28;69130;-74
2023/05/27 03:11:01;;;;;;;;;5.00;4.00;;;;;17.51;55.17;102032.84;5016529;28;45317;-73
2023/05/27 03:13:27;;;;;;;;;2.00;2.00;;;;;17.47;55.31;102021.31;5016384;28;45341;-74
2023/05/27 03:15:54;;;;;;;;;5.33;4.00;;;;;17.47;55.13;102031.06;4997943;28;47830;-74
2023/05/27 03:18:20;;;;;;;;;5.00;4.33;;;;;17.42;55.32;102022.19;5015955;28;45552;-74
2023/05/27 03:20:45;;;;;;;;;5.67;5.00;;;;;17.39;55.20;102016.81;5016232;28;45199;-76
2023/05/27 03:23:10;;;;;;;;;5.67;4.00;;;;;17.40;55.14;102023.94;5016447;28;45341;-75
2023/05/27 03:25:36;;;;;;;;;6.00;5.00;;;;;17.38;55.46;102017.72;5015458;28;68288;-72
2023/05/27 03:28:01;;;;;;;;;5.33;4.00;;;;;17.34;55.42;102023.94;5015072;28;62889;-75
2023/05/27 03:30:26;;;;;;;;;6.67;3.67;;;;;17.33;55.48;102024.81;5015837;28;45285;-73
2023/05/27 03:32:51;;;;;;;;;5.00;5.00;;;;;17.29;55.39;102026.59;5015294;28;60020;-75
2023/05/27 03:35:17;;;;;;;;;4.67;4.00;;;;;17.26;55.56;102021.25;5016226;28;46186;-76
2023/05/27 03:37:42;;;;;;;;;5.00;3.67;;;;;17.25;55.97;102019.44;5015014;28;63768;-75
2023/05/27 03:40:08;;;;;;;;;5.33;5.00;;;;;17.20;55.84;102019.44;5016599;28;45394;-75
2023/05/27 03:42:34;;;;;;;;;4.00;4.00;;;;;17.18;55.89;102015.88;5016290;28;45452;-73
2023/05/27 03:45:00;;;;;;;;;6.00;5.00;;;;;17.18;56.03;102015.00;5013549;28;47668;-74
2023/05/27 03:47:25;;;;;;;;;5.33;4.33;;;;;17.13;55.92;102014.97;5015954;28;45403;-74
2023/05/27 03:49:51;;;;;;;;;6.67;5.00;;;;;17.09;56.09;102009.63;5015031;28;45458;-74
2023/05/27 03:52:16;;;;;;;;;6.00;5.00;;;;;17.05;56.04;102010.53;5014800;28;45386;-74
2023/05/27 03:54:42;;;;;;;;;7.00;5.00;;;;;16.98;56.03;102014.91;5014733;28;67944;-74
2023/05/27 03:57:08;;;;;;;;;7.00;4.33;;;;;16.87;56.01;102017.56;5018818;28;45320;-76
2023/05/27 03:59:33;;;;;;;;;6.00;3.67;;;;;16.80;56.38;102020.19;5019368;28;45453;-73
2023/05/27 04:01:59;;;;;;;;;8.00;6.00;;;;;16.71;57.07;102018.38;5019410;28;45325;-74
2023/05/27 04:04:24;;;;;;;;;5.33;4.67;;;;;16.64;57.45;102012.09;5019169;28;49001;-74
2023/05/27 04:06:49;;;;;;;;;5.00;5.00;;;;;16.59;58.16;102012.94;5017097;28;65916;-75
2023/05/27 04:09:15;;;;;;;;;4.67;4.67;;;;;16.50;58.64;102014.66;5017989;28;62231;-74
2023/05/27 04:11:40;;;;;;;;;10.75;5.00;;;;;16.46;59.44;102028.00;5019112;28;45303;-74
2023/05/27 04:14:06;;;;;;;;;8.00;7.00;;;;;16.43;60.07;102022.63;5018365;28;69096;-73
2023/05/27 04:16:33;;;;;;;;;7.75;6.75;;;;;16.40;60.13;102027.94;5010431;28;45509;-74
2023/05/27 04:18:59;;;;;;;;;6.25;5.00;;;;;16.36;60.47;102027.03;5017560;28;45314;-73
2023/05/27 04:21:25;;;;;;;;;5.33;5.00;;;;;16.33;59.95;102021.69;5019189;28;45631;-74
2023/05/27 04:23:50;;;;;;;;;6.00;5.00;;;;;16.31;60.39;102028.78;5018810;28;46632;-73
2023/05/27 04:26:15;;;;;;;;;5.00;3.67;;;;;16.31;60.21;102022.56;5018483;28;45373;-73
2023/05/27 04:28:41;;;;;;;;;5.33;4.00;;;;;16.32;60.27;102024.34;5017720;28;45652;-74
2023/05/27 04:31:12;;;;;;;;;5.67;4.00;;;;;16.31;60.71;102025.25;5011715;28;45475;-74
2023/05/27 04:33:40;;;;;;;;;5.67;4.00;;;;;16.31;61.02;102020.78;5018703;28;46590;-74
2023/05/27 04:36:06;;;;;;;;;8.75;6.00;;;;;16.29;60.96;102024.31;5018347;28;45488;-74
2023/05/27 04:38:32;;;;;;;;;5.50;3.25;;;;;16.30;61.08;102023.44;5018815;28;45345;-74
2023/05/27 04:40:58;;;;;;;;;6.67;4.00;;;;;16.28;61.57;102023.44;5017738;28;58254;-74
2023/05/27 04:43:26;;;;;;;;;9.75;5.00;;;;;16.25;61.95;102026.09;5018407;28;45742;-76
2023/05/27 04:45:51;;;;;;;;;5.75;3.00;;;;;16.23;61.63;102023.38;5018821;28;45404;-74
2023/05/27 04:48:16;;;;;;;;;12.00;4.33;;;;;16.21;62.40;102021.63;5017958;28;63192;-74
2023/05/27 04:50:42;;;;;;;;;5.00;5.00;;;;;16.23;62.60;102023.38;5017053;28;45516;-75
2023/05/27 04:53:08;;;;;;;;;4.67;4.33;;;;;16.22;62.78;102023.38;4998948;28;46337;-73
2023/05/27 04:55:33;;;;;;;;;5.75;5.00;;;;;16.22;62.78;102024.28;5018021;28;45500;-74
2023/05/27 04:58:03;;;;;;;;;5.00;4.00;;;;;16.20;62.46;102015.41;5012303;28;45286;-74
2023/05/27 05:00:39;;;;;;;;;7.00;4.00;;;;;16.20;62.90;102023.38;5011003;28;45424;-74
2023/05/27 05:03:08;;;;;;;;;5.00;3.00;;;;;16.20;63.65;102020.72;5018349;28;46853;-73
2023/05/27 05:05:34;;;;;;;;;7.00;4.00;;;;;16.21;63.48;102016.28;5012032;28;45338;-73
2023/05/27 05:07:59;;;;;;;;;5.33;4.00;;;;;16.22;63.57;102013.63;5017156;28;45270;-73
2023/05/27 05:10:25;;;;;;;;;6.00;5.00;;;;;16.22;63.63;102020.72;5017861;28;45322;-74
2023/05/27 05:12:50;;;;;;;;;5.00;4.00;;;;;16.26;63.68;102021.66;5018236;28;46215;-73
2023/05/27 05:15:15;;;;;;;;;6.33;4.00;;;;;16.30;64.05;102031.41;5017835;28;45436;-73
2023/05/27 05:17:41;;;;;;;;;7.50;6.00;;;;;16.30;64.52;102028.75;5017975;28;45411;-74
2023/05/27 05:20:08;;;;;;;;;8.25;4.25;;;;;16.30;64.40;102031.41;5016618;28;45371;-74
2023/05/27 05:22:34;;;;;;;;;7.25;7.25;;;;;16.32;64.03;102030.56;5018128;28;46698;-74
2023/05/27 05:24:59;;;;;;;;;8.67;5.00;;;;;16.34;64.30;102033.25;5015010;28;45443;-75
2023/05/27 05:27:25;;;;;;;;;8.50;5.00;;;;;16.37;63.74;102033.28;5124748;22;46663;-75
2023/05/27 05:29:50;;;;;;;;;5.00;3.00;;;;;16.40;64.34;102022.59;5014174;28;45595;-73
2023/05/27 05:32:15;;;;;;;;;6.75;5.00;;;;;16.41;64.37;102030.63;5015943;28;56013;-74
2023/05/27 05:34:41;;;;;;;;;8.00;4.00;;;;;16.41;64.05;102032.41;5017834;28;54763;-74
2023/05/27 05:37:06;;;;;;;;;3.75;3.75;;;;;16.45;64.87;102023.53;5015389;28;46200;-75
2023/05/27 05:39:32;;;;;;;;;2.75;2.50;;;;;16.47;64.95;102027.13;5018409;28;60091;-75
2023/05/27 05:41:58;;;;;;;;;6.67;4.00;;;;;16.52;65.13;102032.47;5016980;28;46737;-77
2023/05/27 05:44:24;;;;;;;;;4.33;3.67;;;;;16.54;65.69;102031.59;5017961;28;45361;-74
2023/05/27 05:46:50;;;;;;;;;6.50;5.50;;;;;16.53;65.78;102032.47;5015866;28;45347;-74
2023/05/27 05:49:15;;;;;;;;;11.00;6.50;;;;;16.57;65.87;102028.94;5017314;28;45169;-76
2023/05/27 05:51:41;;;;;;;;;4.00;4.00;;;;;16.60;66.00;102023.63;5016456;28;46395;-74
2023/05/27 05:54:06;;;;;;;;;6.00;6.00;;;;;16.65;65.03;102031.66;5017649;28;46112;-74
2023/05/27 05:56:33;;;;;;;;;6.33;4.00;;;;;16.67;64.83;102020.13;5016697;28;45380;-75
2023/05/27 05:58:58;;;;;;;;;4.00;4.00;;;;;16.70;65.10;102022.78;5017678;28;45520;-74
2023/05/27 06:01:23;;;;;;;;;8.00;5.00;;;;;16.69;65.28;102022.78;5015401;28;67062;-74
2023/05/27 06:03:49;;;;;;;;;10.00;5.00;;;;;16.74;65.71;102026.41;5016537;28;56890;-76
2023/05/27 06:06:14;;;;;;;;;5.00;5.00;;;;;16.76;65.77;102032.63;5017069;28;45254;-74
2023/05/27 06:08:40;;;;;;;;;5.50;5.50;;;;;16.82;65.91;102029.97;5018449;28;45430;-75
2023/05/27 06:11:06;;;;;;;;;5.50;5.50;;;;;16.87;65.64;102028.22;5009987;28;47307;-74
2023/05/27 06:13:31;;;;;;;;;7.67;4.00;;;;;16.90;65.48;102019.34;5016809;28;45313;-74
2023/05/27 06:15:56;;;;;;;;;4.67;4.00;;;;;16.94;66.31;102027.38;5014284;28;62827;-74
2023/05/27 06:18:22;;;;;;;;;6.00;4.00;;;;;16.98;65.61;102029.16;5014515;28;45467;-76
2023/05/27 06:20:47;;;;;;;;;5.67;4.00;;;;;17.02;65.36;102025.63;5014038;28;45570;-74
2023/05/27 06:23:13;;;;;;;;;11.50;7.50;;;;;17.05;65.70;102027.41;5016014;28;45325;-74
2023/05/27 06:25:38;;;;;;;;;4.67;3.67;;;;;17.09;65.08;102025.63;5015045;28;45518;-74
2023/05/27 06:28:03;;;;;;;;;8.00;4.00;;;;;17.15;65.30;102021.22;5008402;28;45595;-74
2023/05/27 06:30:29;;;;;;;;;7.33;5.67;;;;;17.19;65.10;102027.44;5016432;28;66690;-75
2023/05/27 06:32:55;;;;;;;;;6.67;5.00;;;;;17.25;65.04;102031.00;5005176;28;45889;-73
2023/05/27 06:35:20;;;;;;;;;6.33;4.67;;;;;17.29;65.15;102026.59;5018776;28;45436;-73
2023/05/27 06:37:45;;;;;;;;;5.00;4.00;;;;;17.33;65.30;102028.38;5016894;28;45474;-73
2023/05/27 06:40:11;;;;;;;;;10.67;5.33;;;;;17.39;65.25;102027.50;5019895;28;69143;-74
2023/05/27 06:42:37;;;;;;;;;8.00;4.00;;;;;17.44;65.18;102017.72;5016849;28;45352;-74
2023/05/27 06:45:03;;;;;;;;;6.33;6.33;;;;;17.48;65.17;102016.84;5014414;28;52340;-75
2023/05/27 06:47:28;;;;;;;;;7.00;4.00;;;;;17.54;65.18;102036.44;5009903;28;45151;-74
2023/05/27 06:49:53;;;;;;;;;6.00;4.33;;;;;17.60;65.06;102032.88;5009418;28;46502;-74
2023/05/27 06:52:19;;;;;;;;;9.00;6.00;;;;;17.64;64.77;102023.97;5006075;28;45433;-77
2023/05/27 06:54:45;;;;;;;;;5.00;5.00;;;;;17.68;65.10;102024.84;4997534;28;46711;-75
2023/05/27 06:57:11;;;;;;;;;5.00;5.00;;;;;17.72;64.63;102018.63;5004216;28;45254;-75
2023/05/27 06:59:36;;;;;;;;;7.33;6.33;;;;;17.74;64.95;102012.44;5011311;28;46490;-75
2023/05/27 07:02:01;;;;;;;;;7.00;6.67;;;;;17.80;64.36;102019.56;5015320;28;45531;-75
2023/05/27 07:04:27;;;;;;;;;6.00;5.00;;;;;17.82;64.35;102024.91;5016201;28;45550;-76
2023/05/27 07:06:52;;;;;;;;;6.33;4.00;;;;;17.86;64.97;102021.34;5015564;28;45623;-75
2023/05/27 07:09:17;;;;;;;;;9.00;4.00;;;;;17.87;65.22;102024.03;5010921;28;69576;-76
2023/05/27 07:11:43;;;;;;;;;6.00;5.00;;;;;17.94;65.23;102016.88;5009613;28;45313;-75
2023/05/27 07:14:11;;;;;;;;;6.67;4.00;;;;;17.97;65.27;102014.22;5009613;28;61845;-75
2023/05/27 07:16:36;;;;;;;;;10.00;5.00;;;;;18.02;65.54;102012.44;5011945;28;45436;-76
2023/05/27 07:19:02;;;;;;;;;9.67;5.67;;;;;18.05;65.49;102012.41;5006102;28;46160;-77
2023/05/27 07:21:27;;;;;;;;;8.33;4.00;;;;;18.07;64.98;102010.66;5010377;28;45280;-75
2023/05/27 07:23:53;;;;;;;;;6.00;6.00;;;;;18.14;65.19;102003.50;5006736;28;62127;-75
2023/05/27 07:26:18;;;;;;;;;6.67;5.00;;;;;18.18;64.82;102003.50;5000625;28;45578;-77
2023/05/27 07:28:46;;;;;;;;;10.00;6.67;;;;;18.24;64.76;102000.81;5003233;28;67900;-77
2023/05/27 07:31:11;;;;;;;;;5.33;5.33;;;;;18.27;64.60;101992.81;5003115;28;67370;-77
2023/05/27 07:33:37;;;;;;;;;7.00;4.00;;;;;18.31;64.89;101985.66;5007173;28;64135;-75
2023/05/27 07:36:02;;;;;;;;;6.00;4.67;;;;;18.35;64.78;101984.75;5005666;28;61096;-75
2023/05/27 07:38:28;;;;;;;;;8.00;5.67;;;;;18.37;64.95;101974.94;5019645;28;46590;-75
2023/05/27 07:40:53;;;;;;;;;9.67;5.00;;;;;18.42;65.38;101972.25;5009648;28;45381;-77
2023/05/27 07:43:19;;;;;;;;;10.67;6.00;;;;;18.45;65.00;101978.47;5003731;28;64474;-76
2023/05/27 07:45:44;;;;;;;;;7.67;6.00;;;;;18.48;65.14;101981.16;5001046;28;45536;-74
2023/05/27 07:48:09;;;;;;;;;6.67;6.33;;;;;18.50;64.98;101971.34;5004137;28;45805;-74
2023/05/27 07:50:35;;;;;;;;;9.67;5.00;;;;;18.54;64.96;101985.59;5014692;28;66753;-75
2023/05/27 07:53:00;;;;;;;;;6.67;6.00;;;;;18.57;64.89;101983.78;5005989;28;60934;-75
2023/05/27 07:55:26;;;;;;;;;5.33;2.33;;;;;18.61;65.95;101982.00;5015077;28;45272;-75
2023/05/27 07:57:51;;;;;;;;;6.00;6.00;;;;;18.61;65.39;101973.09;5008344;28;68474;-75
2023/05/27 08:00:16;;;;;;;;;8.00;6.33;;;;;18.64;66.29;101981.97;5017653;28;63785;-76
2023/05/27 08:02:43;;;;;;;;;8.67;5.00;;;;;18.66;64.86;101974.84;5018085;28;45517;-80
2023/05/27 08:05:09;;;;;;;;;6.33;5.00;;;;;18.71;65.58;101975.75;5013172;28;45552;-79
2023/05/27 08:07:34;;;;;;;;;8.00;5.00;;;;;18.77;65.28;101965.00;5019108;28;46490;-77
2023/05/27 08:09:59;;;;;;;;;9.67;7.33;;;;;18.84;64.89;101966.75;5001721;28;67582;-75
2023/05/27 08:12:25;;;;;;;;;6.33;4.00;;;;;18.94;65.90;101972.06;5019290;28;45451;-80
2023/05/27 08:14:53;;;;;;;;;7.00;7.00;;;;;19.01;65.03;101972.00;5007171;28;45573;-82
2023/05/27 08:17:18;;;;;;;;;11.33;5.67;;;;;19.08;65.29;101970.22;5010051;28;47451;-79
2023/05/27 08:19:43;;;;;;;;;7.00;5.00;;;;;19.14;65.06;101962.13;5017786;28;64583;-80
2023/05/27 08:22:09;;;;;;;;;7.33;7.33;;;;;19.21;64.76;101961.19;5018304;28;45527;-80
2023/05/27 08:24:35;;;;;;;;;6.33;5.00;;;;;19.28;64.96;101962.03;5019056;28;45415;-79
2023/05/27 08:27:02;;;;;;;;;6.00;6.00;;;;;19.32;65.24;101945.94;5010755;28;54878;-78
2023/05/27 08:29:30;;;;;;;;;5.33;5.33;;;;;19.39;64.97;101949.47;5005188;28;45421;-77
2023/05/27 08:31:55;;;;;;;;;3.00;3.00;;;;;19.46;65.27;101953.88;5002574;28;45504;-78
2023/05/27 08:34:21;;;;;;;;;7.33;4.67;;;;;19.52;65.26;101947.56;5006501;28;45400;-76
2023/05/27 08:36:46;;;;;;;;;7.33;5.67;;;;;19.58;65.43;101944.84;5017784;28;46625;-78
2023/05/27 08:39:12;;;;;;;;;7.33;5.00;;;;;19.63;65.57;101945.72;5014239;28;61889;-76
2023/05/27 08:41:38;;;;;;;;;7.00;4.00;;;;;19.68;65.63;101935.84;5006934;28;45415;-77
2023/05/27 08:44:03;;;;;;;;;7.00;4.33;;;;;19.76;65.46;101942.03;5011550;28;61998;-76
2023/05/27 08:46:29;;;;;;;;;6.00;6.00;;;;;19.80;65.09;101926.81;5003825;28;47472;-78
2023/05/27 08:48:58;;;;;;;;;7.67;4.00;;;;;19.86;64.89;101930.31;5000944;28;45437;-78
2023/05/27 08:51:23;;;;;;;;;11.67;5.67;;;;;19.91;65.51;101924.91;5004110;28;45572;-79
2023/05/27 08:53:49;;;;;;;;;5.00;5.00;;;;;19.97;65.57;101916.78;5006186;28;59060;-83
2023/05/27 08:56:16;;;;;;;;;4.33;3.67;;;;;20.02;64.71;101923.00;5001112;28;46754;-77
2023/05/27 08:58:41;;;;;;;;;7.00;4.67;;;;;20.03;65.09;101908.72;4991097;28;45376;-77
2023/05/27 09:01:08;;;;;;;;;7.00;5.33;;;;;20.09;65.21;101916.69;5013752;28;45594;-78
2023/05/27 09:03:33;;;;;;;;;4.00;4.00;;;;;20.15;65.72;101915.72;5008241;28;45522;-78
2023/05/27 09:06:01;;;;;;;;;3.00;3.00;;;;;20.22;65.16;101908.50;4987387;28;46024;-77
2023/05/27 09:08:27;;;;;;;;;7.67;5.33;;;;;20.24;64.30;101910.25;4991425;28;45551;-77
2023/05/27 09:10:52;;;;;;;;;5.67;4.67;;;;;20.23;64.52;101904.91;4991548;28;49461;-78
2023/05/27 09:13:30;;;;;;;;;4.00;4.00;;;;;20.24;64.90;101904.91;5003024;28;54372;-78
2023/05/27 09:16:04;;;;;;;;;7.33;4.33;;;;;20.26;65.11;101895.03;4998748;28;47731;-77
2023/05/27 09:18:35;;;;;;;;;9.33;6.00;;;;;20.32;65.27;101903.00;4998514;28;45535;-78
2023/05/27 09:21:00;;;;;;;;;9.00;5.67;;;;;20.41;65.26;101904.69;4995657;28;45519;-79
2023/05/27 09:23:26;;;;;;;;;7.00;5.00;;;;;20.46;65.21;101900.19;4998169;28;46021;-78
2023/05/27 09:25:52;;;;;;;;;5.33;4.00;;;;;20.49;65.42;101893.88;4987896;28;45979;-77
2023/05/27 09:28:21;;;;;;;;;8.67;5.00;;;;;20.55;64.84;101896.47;4994902;28;45630;-77
2023/05/27 09:30:51;;;;;;;;;7.33;6.33;;;;;20.58;65.02;101897.34;4992961;28;45798;-78
2023/05/27 09:33:22;;;;;;;;;8.33;4.33;;;;;20.62;65.15;101882.97;5000039;28;45503;-78
2023/05/27 09:35:47;;;;;;;;;4.33;4.33;;;;;20.64;64.37;101875.78;4997444;28;47591;-78
2023/05/27 09:38:13;;;;;;;;;5.00;5.00;;;;;20.69;65.13;101878.41;4996013;28;45932;-79
2023/05/27 09:40:38;;;;;;;;;7.00;5.67;;;;;20.75;65.54;101878.31;4998042;28;45577;-78
2023/05/27 09:43:04;;;;;;;;;8.67;5.00;;;;;20.80;65.03;101870.19;4995454;28;45597;-77
2023/05/27 09:45:29;;;;;;;;;8.67;5.00;;;;;20.86;65.08;101864.72;5002308;28;46847;-79
2023/05/27 09:47:56;;;;;;;;;8.67;5.00;;;;;20.91;65.29;101860.16;5004120;28;55138;-79
2023/05/27 09:50:22;;;;;;;;;6.00;3.33;;;;;20.99;65.91;101855.59;4988923;28;45550;-78
2023/05/27 09:52:48;;;;;;;;;5.33;5.00;;;;;21.07;65.77;101858.13;5007744;28;45579;-80
2023/05/27 09:55:14;;;;;;;;;6.00;4.33;;;;;21.11;66.25;101857.19;5005585;28;46926;-78
2023/05/27 09:57:40;;;;;;;;;5.00;4.00;;;;;21.19;65.73;101856.13;4998599;28;45579;-78
2023/05/27 10:00:15;;;;;;;;;6.00;5.00;;;;;21.26;65.58;101859.63;5002169;28;47050;-79
2023/05/27 10:02:42;;;;;;;;;5.00;5.00;;;;;21.32;65.66;101845.22;4998361;28;45623;-77
2023/05/27 10:05:08;;;;;;;;;9.67;6.00;;;;;21.38;65.69;101847.81;4998083;28;47577;-80
2023/05/27 10:07:38;;;;;;;;;8.00;5.67;;;;;21.43;65.26;101843.22;5001002;28;45559;-79
2023/05/27 10:10:08;;;;;;;;;8.67;5.00;;;;;21.48;64.64;101837.78;5004773;28;45587;-79
2023/05/27 10:12:34;;;;;;;;;7.33;5.33;;;;;21.52;65.15;101840.38;5004825;28;45404;-79
2023/05/27 10:14:59;;;;;;;;;4.33;4.33;;;;;21.57;65.26;101840.28;4987683;28;47377;-78
2023/05/27 10:17:25;;;;;;;;;4.00;4.00;;;;;21.60;65.53;101829.47;5002427;28;45568;-78
2023/05/27 10:19:55;;;;;;;;;6.33;5.33;;;;;21.63;65.13;101833.00;5006572;28;64583;-79
2023/05/27 10:22:22;;;;;;;;;6.00;5.67;;;;;21.67;64.66;101833.81;4991415;28;45654;-78
2023/05/27 10:24:52;;;;;;;;;6.33;4.33;;;;;21.70;65.12;101818.53;5007017;28;47060;-79
2023/05/27 10:27:18;;;;;;;;;6.67;5.67;;;;;21.77;64.05;101821.09;5001682;28;45512;-78
2023/05/27 10:29:43;;;;;;;;;5.00;5.00;;;;;21.80;64.47;101821.03;5006399;28;45503;-78
2023/05/27 10:32:09;;;;;;;;;10.33;5.00;;;;;21.85;64.10;101817.34;5006934;28;45966;-78
2023/05/27 10:34:42;;;;;;;;;8.67;7.00;;;;;21.91;64.55;101816.34;5006740;28;70049;-78
2023/05/27 10:37:07;;;;;;;;;7.67;4.00;;;;;21.98;64.64;101820.66;4990189;28;45554;-78
2023/05/27 10:39:33;;;;;;;;;8.33;5.33;;;;;22.06;64.69;101817.81;5007300;28;45504;-78
2023/05/27 10:41:58;;;;;;;;;8.00;5.67;;;;;22.14;65.06;101818.56;5008123;28;45543;-79
2023/05/27 10:44:50;;;;;;;;;8.67;7.00;;;;;22.21;65.35;101818.41;5008649;28;46671;-79
2023/05/27 10:47:15;;;;;;;;;12.00;9.67;;;;;22.28;65.30;101821.84;4987855;28;45761;-78
2023/05/27 10:49:45;;;;;;;;;5.67;5.00;;;;;22.39;64.46;101814.44;5008269;28;45428;-79
2023/05/27 10:52:13;;;;;;;;;8.00;4.33;;;;;22.48;63.75;101810.66;5006759;28;45586;-80
2023/05/27 10:54:43;;;;;;;;;6.00;4.00;;;;;22.55;64.02;101803.31;5007892;28;47919;-78
2023/05/27 10:57:09;;;;;;;;;6.00;4.00;;;;;22.61;63.06;101792.41;5008248;28;45682;-78
2023/05/27 10:59:48;;;;;;;;;8.67;6.33;;;;;22.70;63.54;101794.88;5005894;28;45563;-79
2023/05/27 11:02:14;;;;;;;;;7.00;5.33;;;;;22.78;63.41;101789.31;5004471;28;45513;-77
2023/05/27 11:04:40;;;;;;;;;7.00;4.67;;;;;22.88;63.22;101782.81;5004825;28;45560;-80
2023/05/27 11:07:05;;;;;;;;;10.67;7.33;;;;;22.94;63.54;101780.84;5000447;28;45956;-79
2023/05/27 11:09:42;;;;;;;;;6.33;6.00;;;;;23.06;62.68;101794.91;4992059;28;45508;-78
2023/05/27 11:12:07;;;;;;;;;8.00;6.33;;;;;23.14;62.65;101783.03;5005734;28;45447;-78
2023/05/27 11:14:33;;;;;;;;;6.67;6.33;;;;;23.23;62.80;101779.22;5006688;28;69382;-78
2023/05/27 11:16:58;;;;;;;;;9.67;7.67;;;;;23.30;62.23;101775.41;5001728;28;45515;-78
2023/05/27 11:19:24;;;;;;;;;6.00;6.00;;;;;23.38;62.17;101773.38;5006549;28;64712;-78